Observations for BIRMINGHAM AIRPORT, United Kingdom (EGBB)

EGBB 180250Z 14004KT 9999 FEW036 03/02 Q1021
EGBB 180220Z 15004KT 8000 FEW035 SCT042 03/02 Q1021 
EGBB 180150Z 17004KT CAVOK 03/02 Q1021  
EGBB 180120Z 16004KT CAVOK 03/02 Q1021  
EGBB 180050Z 15005KT CAVOK 03/02 Q1021  
EGBB 180020Z 18004KT CAVOK 03/02 Q1021  
EGBB 172350Z 18004KT CAVOK 03/02 Q1021  
EGBB 172320Z 17003KT CAVOK 03/02 Q1021  
EGBB 172250Z 19004KT CAVOK 04/02 Q1021  
EGBB 172220Z 18004KT CAVOK 04/03 Q1021  
EGBB 172150Z 18005KT CAVOK 04/02 Q1021  
EGBB 172120Z 19003KT 9999 FEW044 04/03 Q1021
EGBB 172050Z 17004KT 9999 SCT043 04/03 Q1021
EGBB 172020Z 18005KT 9999 SCT044 05/03 Q1021
EGBB 171950Z 18003KT 9999 FEW031 SCT046 05/03 Q1021 
EGBB 171920Z 17003KT 9999 BKN042 BKN049 04/03 Q1021 
EGBB 171850Z 18004KT CAVOK 05/03 Q1021  
EGBB 171820Z 16004KT CAVOK 04/02 Q1021  
EGBB 171750Z 17003KT CAVOK 05/03 Q1021  
EGBB 171720Z 18003KT CAVOK 06/04 Q1020  
EGBB 171650Z 18004KT CAVOK 07/04 Q1020  
EGBB 171620Z 19005KT 160V230 9999 FEW035 08/04 Q1020
EGBB 171550Z 19006KT 170V230 9999 SCT038 09/04 Q1020
EGBB 171520Z 22005KT 180V260 9999 SCT034 09/04 Q1020
EGBB 171450Z 23006KT 200V270 9999 SCT037 08/04 Q1020
EGBB 171420Z 21007KT 170V260 9999 SCT037 08/04 Q1020
EGBB 171350Z 22005KT 180V250 9999 FEW017 SCT036 08/04 Q1020 
EGBB 171320Z 22007KT 180V240 9999 FEW014 SCT031 08/04 Q1021 
EGBB 171250Z 21007KT 170V240 9999 FEW012 BKN031 07/04 Q1021 
EGBB 171220Z 20006KT 160V240 9999 SCT027 07/04 Q1021
EGBB 171150Z 19005KT 160V230 9999 SCT031 06/04 Q1021
EGBB 171120Z 18007KT 9999 BKN033 06/04 Q1021
EGBB 171050Z 18005KT 9999 BKN035 05/04 Q1020
EGBB 171020Z 18006KT 9999 SCT041 05/03 Q1020
EGBB 170950Z 17004KT 9999 VCSH SCT041 04/03 Q1020   
EGBB 170920Z 16005KT 9999 VCSH SCT044 03/03 Q1020   
EGBB 170850Z 15006KT 9999 SCT048 03/02 Q1020
EGBB 170820Z 16005KT CAVOK 02/02 Q1020  
EGBB 170750Z 15005KT CAVOK 02/02 Q1020  
EGBB 170720Z 15005KT 9999 FEW048 02/02 Q1020
EGBB 170650Z 16005KT 9999 FEW040 02/02 Q1019
EGBB 170620Z 15005KT CAVOK 01/01 Q1019  
EGBB 170550Z 16005KT CAVOK 02/02 Q1019  
EGBB 170520Z 15004KT CAVOK 01/01 Q1020  
EGBB 170450Z 15004KT CAVOK 02/01 Q1020  
EGBB 170420Z 15005KT CAVOK 01/01 Q1020  
EGBB 170350Z 17003KT CAVOK 02/01 Q1020  
EGBB 170320Z 16003KT CAVOK 01/01 Q1020  
EGBB 170250Z 16004KT CAVOK 01/01 Q1020  
EGBB 170220Z 16004KT CAVOK 02/01 Q1020